Time;durP1;ratioP1;P1;durP2;ratioP2;P2;SDS_P1;SDS_P2;PMS_P1;PMS_P2;Temp;Humidity;BMP_temperature;BMP_pressure;BME280_temperature;BME280_humidity;BME280_pressure;Samples;Min_cycle;Max_cycle;Signal;HPM_P1;HPM_P2
2021/08/07 00:01:01;;;;;;;6.70;3.30;;;537.70;1945.60;;;;;;4860726;29;20049;-64
2021/08/07 00:03:26;;;;;;;7.65;3.35;;;537.60;1945.60;;;;;;4860393;29;20034;-64
2021/08/07 00:05:53;;;;;;;9.68;3.20;;;537.60;1945.60;;;;;;4860608;29;20030;-64
2021/08/07 00:08:19;;;;;;;6.18;3.13;;;537.60;1945.60;;;;;;4860652;29;20061;-64
2021/08/07 00:10:45;;;;;;;8.38;3.22;;;537.60;1945.60;;;;;;4860648;29;20057;-64
2021/08/07 00:13:11;;;;;;;11.82;6.00;;;537.70;1945.60;;;;;;4860566;29;20029;-64
2021/08/07 00:15:37;;;;;;;27.85;12.27;;;537.60;1945.60;;;;;;4860309;29;20050;-64
2021/08/07 00:18:02;;;;;;;31.17;16.75;;;537.70;1945.60;;;;;;4860501;29;20116;-64
2021/08/07 00:20:28;;;;;;;37.13;16.88;;;537.60;1945.60;;;;;;4859970;29;20116;-64
2021/08/07 00:22:54;;;;;;;35.55;17.33;;;537.60;1945.60;;;;;;4860387;29;20053;-64
2021/08/07 00:25:20;;;;;;;32.63;16.90;;;537.60;1945.60;;;;;;4860630;29;20037;-63
2021/08/07 00:27:46;;;;;;;31.45;17.42;;;537.60;1945.60;;;;;;4860546;29;20036;-64
2021/08/07 00:30:12;;;;;;;32.65;17.00;;;537.60;1945.60;;;;;;4860436;29;20034;-64
2021/08/07 00:32:39;;;;;;;31.35;16.80;;;537.60;1945.60;;;;;;4860444;29;20101;-64
2021/08/07 00:35:06;;;;;;;32.70;16.85;;;537.60;1945.60;;;;;;4860172;29;20120;-64
2021/08/07 00:37:32;;;;;;;28.00;15.00;;;537.60;1920.00;;;;;;4860459;29;20408;-64
2021/08/07 00:39:58;;;;;;;21.98;13.68;;;537.60;1920.00;;;;;;4860626;29;20033;-64
2021/08/07 00:42:24;;;;;;;22.65;12.10;;;537.60;1920.00;;;;;;4860346;29;20401;-64
2021/08/07 00:44:49;;;;;;;19.33;12.27;;;537.60;1920.00;;;;;;4817586;29;1264898;-64
2021/08/07 00:47:15;;;;;;;20.30;13.13;;;512.90;1894.40;;;;;;4860875;29;20516;-64
2021/08/07 00:49:42;;;;;;;25.27;12.25;;;512.80;1894.40;;;;;;4861165;29;20362;-64
2021/08/07 00:52:08;;;;;;;19.38;12.70;;;512.80;1894.40;;;;;;4861034;29;20381;-64
2021/08/07 00:54:34;;;;;;;21.08;12.60;;;512.70;1920.00;;;;;;4861024;29;20046;-64
2021/08/07 00:57:00;;;;;;;19.02;10.23;;;512.70;1920.00;;;;;;4861066;29;20029;-64
2021/08/07 00:59:26;;;;;;;22.92;11.10;;;512.70;1920.00;;;;;;4860996;29;20064;-64
2021/08/07 01:01:56;;;;;;;21.73;10.60;;;512.70;1920.00;;;;;;4862459;29;20045;-64
2021/08/07 01:04:28;;;;;;;20.48;11.25;;;512.60;1920.00;;;;;;4864381;29;20456;-64
2021/08/07 01:07:10;;;;;;;20.10;10.82;;;512.60;1920.00;;;;;;4864457;29;20029;-64
2021/08/07 01:09:41;;;;;;;20.00;9.13;;;512.50;1945.60;;;;;;4864598;29;20045;-64
2021/08/07 01:12:23;;;;;;;19.25;9.25;;;512.50;1945.60;;;;;;4864279;29;20037;-64
2021/08/07 01:14:51;;;;;;;14.25;8.82;;;512.40;1945.60;;;;;;4864025;29;20494;-64
2021/08/07 01:17:28;;;;;;;21.48;8.95;;;512.30;1945.60;;;;;;4864378;29;20441;-64
2021/08/07 01:19:57;;;;;;;13.80;7.30;;;512.30;1945.60;;;;;;4864637;29;20087;-64
2021/08/07 01:22:32;;;;;;;10.93;7.53;;;512.30;1945.60;;;;;;4863899;29;20089;-64
2021/08/07 01:25:05;;;;;;;17.77;7.75;;;512.30;1945.60;;;;;;4863818;29;20112;-64
2021/08/07 01:27:38;;;;;;;12.70;8.32;;;512.20;1945.60;;;;;;4864098;29;20084;-64
2021/08/07 01:30:06;;;;;;;18.85;8.40;;;512.20;1945.60;;;;;;4863924;29;20105;-64
2021/08/07 01:32:34;;;;;;;13.77;8.05;;;512.20;1945.60;;;;;;4864130;29;20085;-64
2021/08/07 01:35:01;;;;;;;13.02;9.77;;;512.20;1945.60;;;;;;4863911;29;20033;-64
2021/08/07 01:37:27;;;;;;;15.82;11.98;;;512.20;1945.60;;;;;;4863726;29;20033;-64
2021/08/07 01:39:56;;;;;;;16.10;11.85;;;512.10;1945.60;;;;;;4863817;29;20104;-64
2021/08/07 01:42:24;;;;;;;18.45;11.43;;;512.10;1945.60;;;;;;4863540;29;20040;-64
2021/08/07 01:44:49;;;;;;;15.05;11.10;;;512.20;1945.60;;;;;;4863525;29;20034;-64
2021/08/07 01:47:21;;;;;;;13.45;10.30;;;512.10;1945.60;;;;;;4863804;29;20086;-64
2021/08/07 01:50:33;;;;;;;12.25;10.48;;;512.10;1945.60;;;;;;4863982;29;20033;-64
2021/08/07 01:53:01;;;;;;;12.77;10.02;;;512.10;1945.60;;;;;;4859677;29;20033;-64
2021/08/07 01:55:53;;;;;;;12.50;9.00;;;512.10;1945.60;;;;;;4864023;29;20041;-64
2021/08/07 01:58:28;;;;;;;12.10;9.23;;;512.10;1945.60;;;;;;4863520;29;20109;-64
2021/08/07 02:00:55;;;;;;;13.15;8.75;;;512.10;1945.60;;;;;;4863635;29;20387;-64
2021/08/07 02:03:22;;;;;;;13.95;8.93;;;512.00;1945.60;;;;;;4863232;29;20384;-64
2021/08/07 02:05:48;;;;;;;9.73;8.73;;;512.00;1971.20;;;;;;4863432;29;20034;-64
2021/08/07 02:08:15;;;;;;;11.25;8.82;;;512.00;1971.20;;;;;;4863111;29;20112;-64
2021/08/07 02:10:45;;;;;;;11.13;8.65;;;487.30;1971.20;;;;;;4863289;29;20026;-64
2021/08/07 02:13:21;;;;;;;12.18;8.43;;;512.00;1971.20;;;;;;4862649;29;20040;-64
2021/08/07 02:15:51;;;;;;;11.43;8.10;;;487.30;1971.20;;;;;;4862986;29;20045;-64
2021/08/07 02:18:20;;;;;;;17.02;8.98;;;487.30;1971.20;;;;;;4862934;29;20369;-64
2021/08/07 02:20:48;;;;;;;13.45;8.10;;;487.20;1971.20;;;;;;4863108;29;20041;-64
2021/08/07 02:23:17;;;;;;;15.07;8.45;;;487.20;1971.20;;;;;;4863040;29;20094;-64
2021/08/07 02:25:46;;;;;;;11.30;8.27;;;487.20;1996.80;;;;;;4862769;29;20029;-64
2021/08/07 02:28:12;;;;;;;11.48;8.57;;;487.30;1996.80;;;;;;4862998;29;20032;-64
2021/08/07 02:30:40;;;;;;;13.05;8.45;;;487.20;1996.80;;;;;;4863004;29;20033;-64
2021/08/07 02:33:07;;;;;;;12.50;7.82;;;487.30;1996.80;;;;;;4862856;29;20108;-64
2021/08/07 02:35:34;;;;;;;11.45;8.23;;;487.30;1996.80;;;;;;4863055;29;20465;-64
2021/08/07 02:38:01;;;;;;;13.63;7.82;;;487.30;1996.80;;;;;;4862712;29;20033;-64
2021/08/07 02:40:28;;;;;;;12.20;8.27;;;487.30;1996.80;;;;;;4862634;29;20064;-64
2021/08/07 02:42:55;;;;;;;16.15;7.82;;;487.30;1996.80;;;;;;4862772;29;20378;-64
2021/08/07 02:45:21;;;;;;;13.20;7.25;;;487.20;1996.80;;;;;;4862624;29;20057;-64
2021/08/07 02:47:47;;;;;;;12.70;7.97;;;487.20;1996.80;;;;;;4862517;29;20033;-64
2021/08/07 02:50:13;;;;;;;12.32;7.70;;;487.20;1996.80;;;;;;4862525;29;20032;-64
2021/08/07 02:52:40;;;;;;;13.57;8.15;;;487.20;1996.80;;;;;;4862786;29;20366;-64
2021/08/07 02:55:06;;;;;;;12.43;7.93;;;487.20;2022.40;;;;;;4862410;29;20460;-64
2021/08/07 02:57:32;;;;;;;11.20;7.68;;;487.20;1996.80;;;;;;4862266;29;20098;-63
2021/08/07 02:59:59;;;;;;;10.88;7.65;;;487.20;1996.80;;;;;;4861934;29;20030;-64
2021/08/07 03:02:25;;;;;;;11.25;8.05;;;487.20;2022.40;;;;;;4862451;29;20029;-64
2021/08/07 03:04:51;;;;;;;21.80;8.95;;;487.20;2022.40;;;;;;4862383;29;20037;-64
2021/08/07 03:07:17;;;;;;;13.18;7.53;;;487.10;2022.40;;;;;;4862046;29;20037;-64
2021/08/07 03:09:43;;;;;;;13.02;8.27;;;487.10;2022.40;;;;;;4862178;29;20104;-64
2021/08/07 03:12:08;;;;;;;12.85;8.55;;;487.10;2022.40;;;;;;4862207;29;20049;-64
2021/08/07 03:14:34;;;;;;;12.95;7.53;;;487.10;2022.40;;;;;;4862141;29;20029;-64
2021/08/07 03:17:00;;;;;;;14.38;8.07;;;487.10;2022.40;;;;;;4862087;29;20086;-64
2021/08/07 03:19:26;;;;;;;12.35;8.20;;;487.10;2022.40;;;;;;4861910;29;20037;-64
2021/08/07 03:21:52;;;;;;;13.90;7.50;;;487.10;2022.40;;;;;;4862114;29;20025;-64
2021/08/07 03:24:17;;;;;;;11.15;7.57;;;487.10;2022.40;;;;;;4861354;29;20465;-64
2021/08/07 03:26:43;;;;;;;13.30;8.25;;;487.10;2022.40;;;;;;4861806;29;20464;-64
2021/08/07 03:29:09;;;;;;;13.45;7.93;;;487.10;2022.40;;;;;;4862242;29;20037;-64
2021/08/07 03:31:35;;;;;;;9.90;7.15;;;487.10;2022.40;;;;;;4861733;29;20037;-64
2021/08/07 03:34:00;;;;;;;12.48;7.93;;;487.10;2022.40;;;;;;4861925;29;20037;-64
2021/08/07 03:36:26;;;;;;;14.35;7.10;;;487.00;2022.40;;;;;;4861629;29;20128;-64
2021/08/07 03:38:52;;;;;;;16.00;7.95;;;487.00;2022.40;;;;;;4861588;29;20380;-64
2021/08/07 03:41:17;;;;;;;17.73;7.80;;;487.00;2022.40;;;;;;4861761;29;20030;-64
2021/08/07 03:43:43;;;;;;;17.38;8.15;;;486.90;2022.40;;;;;;4862037;29;20083;-64
2021/08/07 03:46:09;;;;;;;15.55;7.90;;;487.00;2048.00;;;;;;4861421;29;20076;-64
2021/08/07 03:48:34;;;;;;;12.82;7.75;;;486.80;2048.00;;;;;;4861788;29;20029;-64
2021/08/07 03:51:00;;;;;;;13.93;7.78;;;486.90;2022.40;;;;;;4861742;29;20381;-64
2021/08/07 03:53:26;;;;;;;11.15;7.28;;;486.90;2048.00;;;;;;4861424;29;20048;-64
2021/08/07 03:55:51;;;;;;;14.63;8.07;;;486.90;2048.00;;;;;;4861453;29;20148;-64
2021/08/07 03:58:17;;;;;;;10.93;7.85;;;486.90;2048.00;;;;;;4861472;29;20029;-64
2021/08/07 04:00:43;;;;;;;16.88;8.07;;;486.90;2048.00;;;;;;4861502;29;20029;-64
2021/08/07 04:03:08;;;;;;;13.77;8.48;;;486.90;2048.00;;;;;;4861356;29;20545;-64
2021/08/07 04:05:35;;;;;;;15.73;8.35;;;486.90;2048.00;;;;;;4861512;29;20029;-64
2021/08/07 04:08:03;;;;;;;21.20;10.32;;;487.00;2048.00;;;;;;4861468;29;20100;-64
2021/08/07 04:10:29;;;;;;;17.83;10.40;;;487.00;2073.60;;;;;;4861478;29;20033;-64
2021/08/07 04:12:55;;;;;;;15.07;10.02;;;487.10;2073.60;;;;;;4861267;29;20476;-64
2021/08/07 04:15:21;;;;;;;18.13;9.05;;;487.10;2073.60;;;;;;4861359;29;20128;-64
2021/08/07 04:17:46;;;;;;;18.02;9.35;;;487.10;2073.60;;;;;;4861401;29;20049;-64
2021/08/07 04:20:12;;;;;;;21.88;9.30;;;487.10;2073.60;;;;;;4861415;29;20469;-64
2021/08/07 04:22:38;;;;;;;20.63;9.43;;;487.10;2073.60;;;;;;4861335;29;20065;-64
2021/08/07 04:25:06;;;;;;;17.77;9.00;;;487.20;2073.60;;;;;;4861274;29;20484;-64
2021/08/07 04:27:32;;;;;;;17.08;8.88;;;487.20;2073.60;;;;;;4861160;29;20469;-64
2021/08/07 04:29:58;;;;;;;21.40;9.30;;;487.20;2048.00;;;;;;4861120;29;20045;-63
2021/08/07 04:32:23;;;;;;;14.07;8.75;;;487.30;2022.40;;;;;;4861466;29;20053;-63
2021/08/07 04:34:49;;;;;;;15.15;9.35;;;487.30;2022.40;;;;;;4861150;29;20041;-63
2021/08/07 04:37:15;;;;;;;20.63;10.18;;;487.30;2048.00;;;;;;4863989;29;20477;-64
2021/08/07 04:39:41;;;;;;;15.27;9.40;;;512.00;2022.40;;;;;;4864884;29;20472;-64
2021/08/07 04:42:07;;;;;;;23.38;9.60;;;512.00;2022.40;;;;;;4864610;29;20036;-64
2021/08/07 04:44:33;;;;;;;15.35;8.85;;;512.10;2022.40;;;;;;4864816;29;20034;-64
2021/08/07 04:46:59;;;;;;;11.15;7.95;;;512.10;2022.40;;;;;;4864473;29;20060;-64
2021/08/07 04:49:24;;;;;;;40.65;8.98;;;512.30;2048.00;;;;;;4864707;29;20087;-64
2021/08/07 04:51:50;;;;;;;33.40;8.82;;;512.40;2048.00;;;;;;4864699;29;20093;-64
2021/08/07 04:54:16;;;;;;;29.67;8.38;;;512.50;2048.00;;;;;;4864642;29;20029;-65
2021/08/07 04:56:42;;;;;;;27.67;7.22;;;512.60;2048.00;;;;;;4864331;29;20459;-65
2021/08/07 04:59:08;;;;;;;16.08;6.57;;;512.60;2022.40;;;;;;4863211;29;20468;-64
2021/08/07 05:01:34;;;;;;;12.68;6.35;;;512.70;2022.40;;;;;;4864561;29;20035;-64
2021/08/07 05:04:00;;;;;;;13.27;5.35;;;512.80;1996.80;;;;;;4864574;29;20025;-64
2021/08/07 05:06:26;;;;;;;10.63;4.63;;;512.80;1971.20;;;;;;4864282;29;20533;-65
2021/08/07 05:08:52;;;;;;;10.32;4.22;;;512.90;1971.20;;;;;;4864414;29;20034;-64
2021/08/07 05:11:17;;;;;;;7.05;4.32;;;512.90;1945.60;;;;;;4864380;29;20037;-64
2021/08/07 05:13:43;;;;;;;4.68;3.88;;;537.60;1971.20;;;;;;4864887;29;20063;-64
2021/08/07 05:16:10;;;;;;;5.70;3.55;;;537.60;1945.60;;;;;;4864238;29;20084;-64
2021/08/07 05:18:36;;;;;;;10.60;3.75;;;537.60;1945.60;;;;;;4864086;29;20037;-65
2021/08/07 05:21:01;;;;;;;9.15;3.55;;;537.60;1945.60;;;;;;4864283;29;20026;-65
2021/08/07 05:23:27;;;;;;;3.90;3.38;;;537.70;1945.60;;;;;;4864020;29;20036;-64
2021/08/07 05:25:53;;;;;;;5.40;2.90;;;537.70;1920.00;;;;;;4864011;29;20029;-64
2021/08/07 05:28:18;;;;;;;4.80;2.95;;;537.80;1945.60;;;;;;4864162;29;20104;-66
2021/08/07 05:30:44;;;;;;;8.10;3.40;;;537.80;1920.00;;;;;;4864343;29;20034;-65
2021/08/07 05:33:10;;;;;;;3.83;3.00;;;537.80;1920.00;;;;;;4864019;29;20044;-65
2021/08/07 05:35:36;;;;;;;5.90;2.88;;;537.80;1920.00;;;;;;4863761;29;20037;-64
2021/08/07 05:38:02;;;;;;;3.03;2.58;;;537.90;1920.00;;;;;;4863847;29;20034;-64
2021/08/07 05:40:28;;;;;;;6.43;3.45;;;538.00;1894.40;;;;;;4863926;29;20029;-64
2021/08/07 05:42:53;;;;;;;4.07;2.88;;;538.00;1894.40;;;;;;4863806;29;20044;-64
2021/08/07 05:45:19;;;;;;;6.38;2.72;;;538.00;1894.40;;;;;;4863462;29;20057;-64
2021/08/07 05:47:45;;;;;;;3.88;2.70;;;538.00;1894.40;;;;;;4862603;29;20029;-64
2021/08/07 05:50:11;;;;;;;3.60;2.80;;;538.10;1894.40;;;;;;4862253;29;20041;-64
2021/08/07 05:52:37;;;;;;;4.38;3.22;;;538.10;1894.40;;;;;;4863811;29;20033;-64
2021/08/07 05:55:04;;;;;;;3.13;2.80;;;538.10;1894.40;;;;;;4863265;29;20366;-64
2021/08/07 05:57:29;;;;;;;6.13;2.88;;;538.20;1894.40;;;;;;4863509;29;20097;-64
2021/08/07 05:59:55;;;;;;;4.60;3.10;;;538.20;1920.00;;;;;;4863530;29;20477;-64
2021/08/07 06:02:21;;;;;;;4.40;3.00;;;538.30;1894.40;;;;;;4863169;29;20041;-64
2021/08/07 06:04:47;;;;;;;6.20;2.92;;;538.40;1894.40;;;;;;4863421;29;20108;-64
2021/08/07 06:07:13;;;;;;;2.90;2.63;;;538.50;1920.00;;;;;;4863475;29;20112;-64
2021/08/07 06:09:39;;;;;;;3.97;2.50;;;538.50;1894.40;;;;;;4863044;29;20525;-64
2021/08/07 06:12:05;;;;;;;4.38;2.63;;;563.20;1920.00;;;;;;4863792;29;20029;-64
2021/08/07 06:14:31;;;;;;;2.75;1.90;;;563.20;1920.00;;;;;;4863708;29;20087;-64
2021/08/07 06:16:57;;;;;;;2.30;2.05;;;563.30;1894.40;;;;;;4863281;29;20041;-65
2021/08/07 06:19:22;;;;;;;3.65;2.22;;;563.40;1894.40;;;;;;4863565;29;20370;-65
2021/08/07 06:21:48;;;;;;;3.28;2.30;;;563.50;1894.40;;;;;;4863136;29;20057;-65
2021/08/07 06:24:14;;;;;;;3.03;2.30;;;563.60;1894.40;;;;;;4863050;29;20025;-64
2021/08/07 06:26:40;;;;;;;4.32;2.72;;;563.70;1894.40;;;;;;4862927;29;20029;-73
2021/08/07 06:29:06;;;;;;;2.75;2.50;;;563.70;1868.80;;;;;;4862934;29;20033;-65
2021/08/07 06:31:31;;;;;;;4.55;2.15;;;563.90;1868.80;;;;;;4862985;29;20041;-65
2021/08/07 06:33:57;;;;;;;3.10;2.00;;;564.00;1843.20;;;;;;4862893;29;20491;-65
2021/08/07 06:36:24;;;;;;;3.58;2.13;;;564.10;1843.20;;;;;;4862564;29;20046;-65
2021/08/07 06:38:50;;;;;;;3.30;2.30;;;588.90;1817.60;;;;;;4862479;29;20033;-65
2021/08/07 06:41:16;;;;;;;3.53;2.40;;;589.20;1740.80;;;;;;4862662;29;20525;-66
2021/08/07 06:43:42;;;;;;;6.00;2.10;;;589.50;1740.80;;;;;;4862808;29;20049;-65
2021/08/07 06:46:09;;;;;;;4.13;2.80;;;614.40;1715.20;;;;;;4862408;29;20057;-66
2021/08/07 06:48:37;;;;;;;3.97;2.22;;;614.60;1664.00;;;;;;4862848;29;20026;-66
2021/08/07 06:51:04;;;;;;;9.73;2.38;;;615.00;1664.00;;;;;;4862343;29;20468;-66
2021/08/07 06:53:29;;;;;;;9.73;2.67;;;615.30;1612.80;;;;;;4862332;29;20113;-66
2021/08/07 06:55:55;;;;;;;13.30;2.60;;;640.30;1587.20;;;;;;4862328;29;20166;-66
2021/08/07 06:58:21;;;;;;;7.03;2.40;;;640.60;1536.00;;;;;;4862483;29;20105;-66
2021/08/07 07:00:47;;;;;;;5.70;2.63;;;665.60;1561.60;;;;;;4862126;29;20388;-66
2021/08/07 07:03:12;;;;;;;5.20;2.25;;;666.00;1510.40;;;;;;4862475;29;20033;-66
2021/08/07 07:05:38;;;;;;;2.65;1.88;;;666.20;1433.60;;;;;;4862437;29;20025;-66
2021/08/07 07:08:04;;;;;;;4.78;2.47;;;691.20;1408.00;;;;;;4862507;29;20388;-66
2021/08/07 07:10:30;;;;;;;4.88;2.00;;;691.40;1382.40;;;;;;4862297;29;20109;-66
2021/08/07 07:12:57;;;;;;;4.05;2.17;;;691.70;1331.20;;;;;;4850478;29;20038;-66
2021/08/07 07:15:23;;;;;;;4.88;1.73;;;691.90;1331.20;;;;;;4843616;29;20069;-67
2021/08/07 07:17:49;;;;;;;2.92;1.48;;;716.80;1305.60;;;;;;4843310;29;20034;-65
2021/08/07 07:20:15;;;;;;;5.30;1.75;;;717.00;1280.00;;;;;;4843640;29;20347;-66
2021/08/07 07:22:41;;;;;;;9.13;2.22;;;717.30;1254.40;;;;;;4843571;29;20030;-67
2021/08/07 07:25:12;;;;;;;4.97;1.90;;;717.50;1228.80;;;;;;4843366;29;20200;-67
2021/08/07 07:27:38;;;;;;;2.30;1.85;;;742.40;1228.80;;;;;;4843385;29;20389;-67
2021/08/07 07:30:05;;;;;;;4.82;2.28;;;742.60;1228.80;;;;;;4843307;29;20045;-67
2021/08/07 07:32:31;;;;;;;2.83;2.40;;;742.80;1203.20;;;;;;4843204;29;20026;-67
2021/08/07 07:34:56;;;;;;;2.92;2.40;;;743.10;1177.60;;;;;;4845051;29;20045;-67
2021/08/07 07:37:23;;;;;;;2.47;1.90;;;743.20;1203.20;;;;;;4845895;29;20030;-67
2021/08/07 07:39:49;;;;;;;1.95;1.73;;;768.10;1203.20;;;;;;4843205;29;20061;-68
2021/08/07 07:42:15;;;;;;;2.15;1.80;;;768.30;1177.60;;;;;;4842848;29;20038;-67
2021/08/07 07:44:41;;;;;;;1.83;1.52;;;768.50;1126.40;;;;;;4843155;29;20486;-68
2021/08/07 07:47:07;;;;;;;1.70;1.60;;;768.80;1126.40;;;;;;4843029;29;20116;-68
2021/08/07 07:49:32;;;;;;;1.77;1.60;;;793.60;1100.80;;;;;;4843301;29;20030;-67
2021/08/07 07:51:58;;;;;;;12.68;2.50;;;793.80;1075.20;;;;;;4843271;29;20034;-68
2021/08/07 07:54:24;;;;;;;9.82;2.35;;;794.10;1075.20;;;;;;4843041;29;20029;-68
2021/08/07 07:56:49;;;;;;;8.63;1.73;;;794.30;1049.60;;;;;;4843006;29;20037;-68
2021/08/07 07:59:15;;;;;;;5.88;1.42;;;794.50;1024.00;;;;;;4843760;29;20018;-67
2021/08/07 08:01:41;;;;;;;6.07;1.40;;;819.20;972.80;;;;;;4842824;29;20052;-68
2021/08/07 08:04:07;;;;;;;5.18;1.55;;;819.40;947.20;;;;;;4842740;29;20108;-68
2021/08/07 08:06:32;;;;;;;4.05;1.38;;;819.50;947.20;;;;;;4851207;29;20034;-68
2021/08/07 08:08:58;;;;;;;6.78;1.80;;;819.70;947.20;;;;;;4851993;29;20022;-67
2021/08/07 08:11:24;;;;;;;4.13;1.40;;;819.90;947.20;;;;;;4850003;29;20077;-67
2021/08/07 08:13:50;;;;;;;2.50;1.15;;;820.10;947.20;;;;;;4850351;29;20480;-68
2021/08/07 08:16:16;;;;;;;1.75;1.40;;;844.80;947.20;;;;;;4851663;29;20468;-68
2021/08/07 08:18:41;;;;;;;3.88;1.38;;;844.80;921.60;;;;;;4850260;29;20108;-68
2021/08/07 08:21:07;;;;;;;2.90;1.33;;;844.90;896.00;;;;;;4850470;29;20041;-67
2021/08/07 08:23:33;;;;;;;3.28;1.35;;;845.00;896.00;;;;;;4849856;29;20021;-66
2021/08/07 08:25:59;;;;;;;1.73;1.35;;;845.30;870.40;;;;;;4849957;29;20026;-68
2021/08/07 08:28:25;;;;;;;3.50;1.75;;;845.40;896.00;;;;;;4851481;29;20026;-68
2021/08/07 08:30:50;;;;;;;7.43;1.40;;;845.50;896.00;;;;;;4851279;29;20358;-66
2021/08/07 08:33:16;;;;;;;6.32;1.50;;;845.60;870.40;;;;;;4850522;29;20053;-68
2021/08/07 08:35:43;;;;;;;4.20;1.30;;;870.40;844.80;;;;;;4851792;29;20484;-68
2021/08/07 08:38:09;;;;;;;2.63;1.33;;;870.60;844.80;;;;;;4849476;29;20026;-68
2021/08/07 08:40:35;;;;;;;12.63;1.60;;;870.60;844.80;;;;;;4847737;29;20038;-68
2021/08/07 08:43:01;;;;;;;4.82;1.35;;;870.70;870.40;;;;;;4855179;29;20544;-68
2021/08/07 08:45:27;;;;;;;2.25;1.13;;;870.80;870.40;;;;;;4860988;29;20542;-67
2021/08/07 08:47:55;;;;;;;24.30;2.55;;;870.80;870.40;;;;;;4861312;29;20036;-68
2021/08/07 08:50:22;;;;;;;26.40;2.63;;;871.00;844.80;;;;;;4861083;29;20038;-68
2021/08/07 08:52:49;;;;;;;9.30;1.50;;;871.10;844.80;;;;;;4860993;29;20132;-67
2021/08/07 08:55:15;;;;;;;11.63;1.50;;;871.20;819.20;;;;;;4860947;29;20117;-68
2021/08/07 08:57:42;;;;;;;31.40;3.80;;;871.20;819.20;;;;;;4857448;29;20171;-69
2021/08/07 09:00:09;;;;;;;11.93;2.15;;;896.00;819.20;;;;;;4850288;29;20388;-67
2021/08/07 09:02:36;;;;;;;11.45;2.20;;;896.00;819.20;;;;;;4850493;29;20018;-68
2021/08/07 09:05:02;;;;;;;34.90;3.17;;;896.10;844.80;;;;;;4853136;29;20025;-68
2021/08/07 09:07:28;;;;;;;50.10;3.78;;;896.20;870.40;;;;;;4852407;29;20705;-66
2021/08/07 09:09:56;;;;;;;23.73;2.60;;;896.20;844.80;;;;;;4850711;29;20110;-66
2021/08/07 09:12:46;;;;;;;12.45;1.83;;;896.30;844.80;;;;;;4851049;29;20481;-66
2021/08/07 09:15:24;;;;;;;2.47;1.20;;;896.30;844.80;;;;;;4852006;29;20034;-66
2021/08/07 09:17:50;;;;;;;1.30;1.13;;;896.60;819.20;;;;;;4844638;29;20508;-67
2021/08/07 09:20:27;;;;;;;3.75;1.17;;;896.60;819.20;;;;;;4851565;29;20034;-66
2021/08/07 09:22:53;;;;;;;3.15;1.15;;;896.80;793.60;;;;;;4853081;29;20362;-67
2021/08/07 09:25:23;;;;;;;1.92;1.30;;;896.90;793.60;;;;;;4853126;29;20022;-66
2021/08/07 09:27:52;;;;;;;1.98;1.23;;;921.60;819.20;;;;;;4854122;29;20049;-65
2021/08/07 09:30:18;;;;;;;1.42;1.15;;;921.60;793.60;;;;;;4850817;29;20032;-66
2021/08/07 09:32:47;;;;;;;2.92;1.38;;;921.70;793.60;;;;;;4847934;29;20038;-66
2021/08/07 09:35:16;;;;;;;1.90;1.45;;;921.60;793.60;;;;;;4852173;29;20034;-66
2021/08/07 09:37:43;;;;;;;1.25;0.85;;;921.90;793.60;;;;;;4853491;29;20033;-66
2021/08/07 09:40:11;;;;;;;2.38;1.08;;;922.00;768.00;;;;;;4854268;29;20036;-66
2021/08/07 09:42:53;;;;;;;2.80;1.00;;;922.00;768.00;;;;;;4853926;29;20030;-64
2021/08/07 09:45:26;;;;;;;3.30;1.13;;;922.10;742.40;;;;;;4854021;29;20121;-63
2021/08/07 09:48:03;;;;;;;4.45;1.13;;;922.10;768.00;;;;;;4852622;29;20053;-64
2021/08/07 09:50:31;;;;;;;2.97;1.13;;;922.30;768.00;;;;;;4852541;29;20392;-64
2021/08/07 09:52:58;;;;;;;6.38;1.20;;;922.30;768.00;;;;;;4852614;29;20033;-65
2021/08/07 09:55:25;;;;;;;2.22;1.25;;;922.50;716.80;;;;;;4854702;29;20094;-66
2021/08/07 09:58:11;;;;;;;2.78;1.15;;;922.50;716.80;;;;;;4852908;29;20033;-64
2021/08/07 10:00:43;;;;;;;2.55;1.25;;;947.20;691.20;;;;;;4853473;29;20477;-64
2021/08/07 10:03:22;;;;;;;1.83;1.20;;;947.30;716.80;;;;;;4852607;29;20457;-64
2021/08/07 10:05:49;;;;;;;1.73;1.40;;;947.30;691.20;;;;;;4852514;29;20036;-63
2021/08/07 10:08:15;;;;;;;2.78;1.10;;;947.40;665.60;;;;;;4853844;29;20348;-64
2021/08/07 10:10:43;;;;;;;3.42;1.20;;;947.50;691.20;;;;;;4853536;29;20030;-64
2021/08/07 10:13:10;;;;;;;2.92;1.25;;;947.50;691.20;;;;;;4852954;29;20049;-64
2021/08/07 10:15:41;;;;;;;2.38;1.17;;;947.50;716.80;;;;;;4854132;29;20169;-63
2021/08/07 10:18:08;;;;;;;3.25;1.13;;;947.50;691.20;;;;;;4853764;29;20041;-64
2021/08/07 10:20:36;;;;;;;3.28;1.20;;;947.50;691.20;;;;;;4852590;29;20108;-64
2021/08/07 10:23:03;;;;;;;1.65;1.20;;;947.60;691.20;;;;;;4853619;29;20033;-63
2021/08/07 10:25:29;;;;;;;2.20;0.93;;;947.70;691.20;;;;;;4852402;29;20038;-64
2021/08/07 10:27:58;;;;;;;2.10;0.98;;;947.70;665.60;;;;;;4852226;29;20033;-64
2021/08/07 10:30:26;;;;;;;1.02;0.93;;;947.80;665.60;;;;;;4853051;29;20034;-65
2021/08/07 10:32:58;;;;;;;2.60;1.20;;;947.80;665.60;;;;;;4852738;29;20025;-64
2021/08/07 10:35:26;;;;;;;1.80;1.33;;;947.90;665.60;;;;;;4852209;29;20034;-64
2021/08/07 10:37:55;;;;;;;2.33;1.38;;;947.90;665.60;;;;;;4852465;29;20499;-64
2021/08/07 10:40:22;;;;;;;1.60;1.15;;;948.10;665.60;;;;;;4852268;29;20022;-64
2021/08/07 10:42:51;;;;;;;1.33;1.08;;;948.10;665.60;;;;;;4853078;29;20061;-65
2021/08/07 10:45:17;;;;;;;1.75;1.30;;;972.80;691.20;;;;;;4853667;29;20393;-63
2021/08/07 10:47:45;;;;;;;1.33;1.20;;;972.80;665.60;;;;;;4852193;29;20485;-63
2021/08/07 10:50:26;;;;;;;3.05;1.30;;;972.80;691.20;;;;;;4852480;29;20033;-64
2021/08/07 10:53:18;;;;;;;4.00;1.00;;;972.80;665.60;;;;;;4853312;29;20082;-64
2021/08/07 10:55:46;;;;;;;8.32;1.10;;;972.80;665.60;;;;;;4797502;29;20047;-64
2021/08/07 10:58:36;;;;;;;1.83;1.17;;;972.80;640.00;;;;;;4795630;29;20136;-65
2021/08/07 11:04:02;;;;;;;1.77;1.25;;;972.80;614.40;;;;;;4797637;29;20069;-65
2021/08/07 11:06:46;;;;;;;1.70;1.00;;;972.80;640.00;;;;;;4797834;29;20176;-64
2021/08/07 11:09:38;;;;;;;6.97;1.33;;;972.80;665.60;;;;;;4796540;29;20031;-64
2021/08/07 11:12:07;;;;;;;9.23;1.50;;;972.80;640.00;;;;;;4799351;29;20035;-65
2021/08/07 11:14:35;;;;;;;9.00;1.65;;;972.90;640.00;;;;;;4804022;29;20564;-64
2021/08/07 11:17:06;;;;;;;22.15;3.15;;;972.90;640.00;;;;;;4804606;29;20110;-65
2021/08/07 11:19:45;;;;;;;7.38;1.70;;;972.90;614.40;;;;;;4798752;29;20043;-65
2021/08/07 11:22:11;;;;;;;2.78;1.15;;;972.90;614.40;;;;;;4787187;30;20132;-64
2021/08/07 11:24:57;;;;;;;3.45;1.40;;;972.90;614.40;;;;;;4771772;30;20068;-65
2021/08/07 11:27:45;;;;;;;2.28;0.80;;;972.90;640.00;;;;;;4786902;30;20552;-65
2021/08/07 11:30:19;;;;;;;28.73;3.13;;;972.90;640.00;;;;;;4786902;30;20028;-63
2021/08/07 11:33:00;;;;;;;45.88;4.57;;;972.90;640.00;;;;;;4815552;29;20038;-65
2021/08/07 11:35:32;;;;;;;7.45;1.50;;;973.00;665.60;;;;;;4843445;29;20042;-65
2021/08/07 11:38:06;;;;;;;24.80;2.92;;;972.90;665.60;;;;;;4843360;29;20037;-65
2021/08/07 11:40:53;;;;;;;32.17;3.38;;;972.90;640.00;;;;;;4843244;29;20454;-66
2021/08/07 11:43:23;;;;;;;11.23;1.95;;;972.90;691.20;;;;;;4843299;29;20055;-65
2021/08/07 11:46:06;;;;;;;25.13;4.03;;;972.90;691.20;;;;;;4842260;29;20527;-64
2021/08/07 11:48:33;;;;;;;37.35;4.38;;;972.80;691.20;;;;;;4850386;29;20077;-65
2021/08/07 11:51:04;;;;;;;12.25;1.90;;;972.80;691.20;;;;;;4851518;29;20037;-64
2021/08/07 11:53:30;;;;;;;14.38;2.08;;;972.80;665.60;;;;;;4850978;29;20021;-65
2021/08/07 11:56:05;;;;;;;32.80;3.58;;;972.80;691.20;;;;;;4850948;29;20166;-65
2021/08/07 11:58:32;;;;;;;56.13;5.53;;;972.90;691.20;;;;;;4848976;29;20031;-64
2021/08/07 12:01:02;;;;;;;20.75;2.72;;;972.90;691.20;;;;;;4851729;29;20041;-64
2021/08/07 12:03:40;;;;;;;11.02;2.55;;;972.80;691.20;;;;;;4852540;29;20032;-64
2021/08/07 12:06:06;;;;;;;30.08;2.70;;;972.80;665.60;;;;;;4852773;29;20495;-64
2021/08/07 12:08:33;;;;;;;18.08;1.90;;;972.80;665.60;;;;;;4851242;29;20018;-64
2021/08/07 12:11:01;;;;;;;13.85;1.70;;;972.90;691.20;;;;;;4850517;29;20044;-64
2021/08/07 12:13:29;;;;;;;48.78;4.18;;;972.80;691.20;;;;;;4855811;29;20034;-65
2021/08/07 12:16:01;;;;;;;35.47;4.28;;;972.90;691.20;;;;;;4850166;29;20102;-65
2021/08/07 12:18:37;;;;;;;22.27;3.17;;;972.80;716.80;;;;;;4845277;29;20037;-64
2021/08/07 12:21:03;;;;;;;22.10;2.80;;;972.80;716.80;;;;;;4843058;29;20075;-64
2021/08/07 12:23:42;;;;;;;11.07;1.58;;;972.80;716.80;;;;;;4843155;29;20034;-65